.
WxDataArchive / Data Records for 2009-02-20
2009-02-19 February 2009 2009-02-21

Data Records for Friday, 20 February 2009

Time	Temp	Chill	HIndex	Humid	Dewpt	 Wind 	HiWind	WindDir	Rain 	Barom 
-----	----	-----	------	-----	-----	------	------	-------	-----	----- 
00:00	20.0	20.0	20.0	61	8.7	2	4	248	0.00	30.072 
00:05	20.2	20.2	20.2	60	8.6	3	5	270	0.00	30.071 
00:10	20.2	20.2	20.2	60	8.6	2	6	270	0.00	30.073 
00:15	20.3	20.3	20.3	60	8.7	3	10	270	0.00	30.072 
00:20	20.5	20.5	20.5	59	8.5	3	10	270	0.00	30.071 
00:25	20.3	20.3	20.3	59	8.3	3	6	270	0.00	30.070 
00:30	20.3	20.3	20.3	58	7.9	3	11	270	0.00	30.076 
00:35	20.3	20.3	20.3	58	7.9	3	11	270	0.00	30.075 
00:40	20.2	20.2	20.2	58	7.8	2	5	270	0.00	30.077 
00:45	20.2	20.2	20.2	59	8.2	2	4	270	0.00	30.077 
00:50	20.0	20.0	20.0	59	8.0	3	6	270	0.00	30.075 
00:55	19.9	19.9	19.9	60	8.3	2	5	270	0.00	30.074 
01:00	19.7	19.7	19.7	59	7.7	3	6	270	0.00	30.073 
01:05	19.7	19.7	19.7	60	8.1	2	5	270	0.00	30.076 
01:10	19.7	19.7	19.7	60	8.1	2	5	270	0.00	30.077 
01:15	19.7	19.7	19.7	60	8.1	2	4	270	0.00	30.077 
01:20	19.7	19.7	19.7	60	8.1	2	5	270	0.00	30.078 
01:25	19.5	19.5	19.5	61	8.3	2	4	270	0.00	30.078 
01:30	19.4	19.4	19.4	61	8.2	2	10	270	0.00	30.078 
01:35	19.4	19.4	19.4	62	8.5	2	5	270	0.00	30.080 
01:40	19.2	19.2	19.2	62	8.3	2	7	292	0.00	30.080 
01:45	19.2	19.2	19.2	62	8.3	2	6	248	0.00	30.080 
01:50	19.1	19.1	19.1	63	8.6	2	5	292	0.00	30.080 
01:55	19.1	19.1	19.1	64	9.0	2	4	270	0.00	30.081 
02:00	19.1	19.1	19.1	64	9.0	2	5	270	0.00	30.080 
02:05	19.1	19.1	19.1	65	9.3	2	4	270	0.00	30.079 
02:10	18.9	18.9	18.9	65	9.1	1	3	270	0.00	30.078 
02:15	18.9	18.9	18.9	65	9.1	1	3	270	0.00	30.079 
02:20	18.6	18.6	18.6	65	8.8	2	5	248	0.00	30.078 
02:25	18.4	18.4	18.4	65	8.6	2	4	248	0.00	30.082 
02:30	18.1	18.1	18.1	66	8.7	1	4	248	0.00	30.082 
02:35	17.8	17.8	17.8	66	8.4	1	4	248	0.00	30.082 
02:40	17.8	17.8	17.8	67	8.7	1	3	248	0.00	30.082 
02:45	17.7	17.7	17.7	67	8.6	1	6	248	0.00	30.081 
02:50	17.5	17.5	17.5	68	8.8	1	5	248	0.00	30.082 
02:55	17.5	17.5	17.5	68	8.8	1	4	270	0.00	30.082 
03:00	17.5	17.5	17.5	68	8.8	2	4	248	0.00	30.081 
03:05	17.5	17.5	17.5	68	8.8	1	4	248	0.00	30.081 
03:10	17.5	17.5	17.5	68	8.8	1	4	248	0.00	30.080 
03:15	17.5	17.5	17.5	68	8.8	1	4	248	0.00	30.080 
03:20	17.5	17.5	17.5	68	8.8	1	2	248	0.00	30.081 
03:25	17.3	17.3	17.3	68	8.6	1	4	270	0.00	30.081 
03:30	17.3	17.3	17.3	68	8.6	1	3	248	0.00	30.082 
03:35	17.3	17.3	17.3	68	8.6	1	3	248	0.00	30.082 
03:40	17.3	17.3	17.3	69	8.9	1	3	248	0.00	30.082 
03:45	17.3	17.3	17.3	69	8.9	0	4	225	0.00	30.081 
03:50	17.3	17.3	17.3	69	8.9	0	3	225	0.00	30.082 
03:55	17.2	17.2	17.2	69	8.8	0	1	248	0.00	30.081 
04:00	17.0	17.0	17.0	69	8.6	0	1	248	0.00	30.084 
04:05	17.0	17.0	17.0	70	8.9	0	2	248	0.00	30.083 
04:10	17.0	17.0	17.0	70	8.9	0	2	248	0.00	30.082 
04:15	16.9	16.9	16.9	70	8.8	0	2	248	0.00	30.083 
04:20	16.9	16.9	16.9	70	8.8	0	1	248	0.00	30.082 
04:25	16.7	16.7	16.7	70	8.6	0	1	248	0.00	30.084 
04:30	16.5	16.5	16.5	71	8.8	0	4	248	0.00	30.083 
04:35	16.7	16.7	16.7	71	9.0	1	3	248	0.00	30.084 
04:40	16.7	16.7	16.7	71	9.0	1	3	248	0.00	30.084 
04:45	16.7	16.7	16.7	71	9.0	0	2	248	0.00	30.086 
04:50	16.7	16.7	16.7	71	9.0	1	3	248	0.00	30.086 
04:55	16.7	16.7	16.7	71	9.0	0	3	248	0.00	30.084 
05:00	16.7	16.7	16.7	71	9.0	1	3	248	0.00	30.090 
05:05	16.7	16.7	16.7	71	9.0	1	3	248	0.00	30.091 
05:10	16.7	16.7	16.7	71	9.0	1	3	248	0.00	30.093 
05:15	16.9	16.9	16.9	71	9.2	1	4	270	0.00	30.090 
05:20	16.9	16.9	16.9	71	9.2	1	2	270	0.00	30.091 
05:25	16.9	16.9	16.9	71	9.2	0	2	270	0.00	30.093 
05:30	16.9	16.9	16.9	71	9.2	1	4	248	0.00	30.095 
05:35	16.9	16.9	16.9	70	8.8	1	5	248	0.00	30.096 
05:40	16.9	16.9	16.9	70	8.8	1	4	248	0.00	30.097 
05:45	17.0	17.0	17.0	70	8.9	1	4	248	0.00	30.098 
05:50	17.2	17.2	17.2	70	9.1	1	3	248	0.00	30.098 
05:55	17.2	17.2	17.2	70	9.1	0	1	248	0.00	30.098 
06:00	17.0	17.0	17.0	70	8.9	0	1	248	0.00	30.100 
06:05	17.0	17.0	17.0	70	8.9	1	3	248	0.00	30.103 
06:10	17.0	17.0	17.0	70	8.9	1	3	248	0.00	30.104 
06:15	16.9	16.9	16.9	71	9.2	1	2	248	0.00	30.109 
06:20	16.9	16.9	16.9	71	9.2	1	3	248	0.00	30.112 
06:25	17.0	17.0	17.0	71	9.2	0	2	248	0.00	30.113 
06:30	17.0	17.0	17.0	71	9.2	1	4	248	0.00	30.115 
06:35	17.0	17.0	17.0	71	9.2	1	5	248	0.00	30.115 
06:40	17.0	17.0	17.0	70	8.9	1	6	248	0.00	30.116 
06:45	16.9	16.9	16.9	70	8.8	1	4	248	0.00	30.116 
06:50	16.9	16.9	16.9	70	8.8	1	3	248	0.00	30.118 
06:55	16.7	16.7	16.7	70	8.6	1	7	248	0.00	30.118 
07:00	16.5	16.5	16.5	70	8.5	2	5	248	0.00	30.120 
07:05	16.4	16.4	16.4	70	8.4	1	4	270	0.00	30.122 
07:10	16.2	16.2	16.2	71	8.5	1	3	270	0.00	30.127 
07:15	16.2	16.2	16.2	71	8.5	2	6	270	0.00	30.130 
07:20	16.2	16.2	16.2	71	8.5	1	4	248	0.00	30.131 
07:25	16.1	16.1	16.1	71	8.4	1	5	248	0.00	30.132 
07:30	16.2	16.2	16.2	71	8.5	1	4	248	0.00	30.131 
07:35	16.4	16.4	16.4	71	8.7	2	6	248	0.00	30.133 
07:40	16.4	16.4	16.4	71	8.7	1	4	225	0.00	30.133 
07:45	16.4	16.4	16.4	71	8.7	1	3	225	0.00	30.133 
07:50	16.4	16.4	16.4	71	8.7	1	3	248	0.00	30.138 
07:55	16.4	16.4	16.4	71	8.7	1	5	248	0.00	30.141 
08:00	16.4	16.4	16.4	71	8.7	1	3	248	0.00	30.146 
08:05	16.5	16.5	16.5	71	8.8	1	3	248	0.00	30.146 
08:10	16.7	16.7	16.7	71	9.0	2	3	270	0.00	30.146 
08:15	16.7	16.7	16.7	70	8.6	2	6	248	0.00	30.148 
08:20	17.0	17.0	17.0	70	8.9	1	4	248	0.00	30.149 
08:25	17.0	17.0	17.0	69	8.6	2	6	270	0.00	30.151 
08:30	17.2	17.2	17.2	69	8.8	2	4	248	0.00	30.155 
08:35	17.3	17.3	17.3	69	8.9	1	3	270	0.00	30.156 
08:40	17.5	17.5	17.5	68	8.8	2	4	270	0.00	30.159 
08:45	17.7	17.7	17.7	68	9.0	1	4	270	0.00	30.161 
08:50	18.0	18.0	18.0	68	9.2	2	5	248	0.00	30.161 
08:55	18.3	18.3	18.3	68	9.5	1	3	248	0.00	30.163 
09:00	18.4	18.4	18.4	67	9.3	2	7	248	0.00	30.164 
09:05	18.6	18.6	18.6	66	9.2	3	7	248	0.00	30.163 
09:10	19.1	19.1	19.1	66	9.6	2	7	248	0.00	30.167 
09:15	19.4	19.4	19.4	65	9.6	3	9	270	0.00	30.169 
09:20	19.7	19.7	19.7	65	9.9	3	8	270	0.00	30.168 
09:25	20.0	20.0	20.0	64	9.8	2	5	270	0.00	30.168 
09:30	20.3	20.3	20.3	64	10.1	2	5	270	0.00	30.167 
09:35	20.6	20.6	20.6	62	9.7	3	7	270	0.00	30.167 
09:40	20.8	20.8	20.8	62	9.9	2	5	270	0.00	30.169 
09:45	21.1	21.1	21.1	62	10.1	2	6	270	0.00	30.167 
09:50	21.4	21.4	21.4	61	10.1	2	4	270	0.00	30.169 
09:55	21.6	21.6	21.6	62	10.6	2	7	270	0.00	30.171 
10:00	21.9	21.9	21.9	61	10.5	2	7	270	0.00	30.173 
10:05	21.9	21.9	21.9	60	10.2	3	10	270	0.00	30.172 
10:10	21.9	21.9	21.9	61	10.5	3	8	248	0.00	30.173 
10:15	22.2	22.2	22.2	60	10.5	2	10	270	0.00	30.172 
10:20	22.9	22.9	22.9	61	11.5	2	4	315	0.00	30.172 
10:25	23.0	23.0	23.0	60	11.2	2	6	270	0.00	30.178 
10:30	23.2	23.2	23.2	60	11.4	2	7	270	0.00	30.178 
10:35	23.0	23.0	23.0	59	10.8	3	10	270	0.00	30.180 
10:40	22.9	22.9	22.9	60	11.1	3	11	270	0.00	30.180 
10:45	23.0	23.0	23.0	59	10.8	3	6	270	0.00	30.178 
10:50	22.9	22.9	22.9	57	10.0	2	7	315	0.00	30.178 
10:55	23.0	23.0	23.0	58	10.5	3	6	270	0.00	30.179 
11:00	23.5	23.5	23.5	58	10.9	2	6	270	0.00	30.172 
11:05	23.8	23.8	23.8	57	10.8	3	6	270	0.00	30.168 
11:10	24.1	24.1	24.1	56	10.7	2	6	292	0.00	30.168 
11:15	24.4	24.4	24.4	57	11.4	2	5	270	0.00	30.167 
11:20	24.5	24.5	24.5	54	10.3	3	9	270	0.00	30.165 
11:25	24.5	24.5	24.5	54	10.3	3	6	270	0.00	30.162 
11:30	24.7	24.7	24.7	54	10.5	3	7	270	0.00	30.162 
11:35	25.0	25.0	25.0	56	11.5	2	5	270	0.00	30.158 
11:40	25.1	25.1	25.1	54	10.8	2	6	270	0.00	30.155 
11:45	25.4	25.4	25.4	54	11.1	3	9	270	0.00	30.157 
11:50	25.6	25.6	25.6	56	12.1	3	6	270	0.00	30.160 
11:55	25.8	25.8	25.8	54	11.5	3	7	270	0.00	30.158 
12:00	25.8	25.8	25.8	53	11.1	3	9	270	0.00	30.158 
12:05	26.0	26.0	26.0	54	11.7	3	10	270	0.00	30.158 
12:10	26.0	26.0	26.0	56	12.5	2	6	270	0.00	30.160 
12:15	26.1	26.1	26.1	55	12.2	3	9	270	0.00	30.160 
12:20	26.4	26.4	26.4	54	12.0	3	8	270	0.00	30.158 
12:25	26.9	26.9	26.9	55	12.9	2	5	270	0.00	30.154 
12:30	27.0	27.0	27.0	54	12.6	3	9	270	0.00	30.154 
12:35	27.5	27.5	27.5	54	13.1	2	7	270	0.00	30.163 
12:40	27.3	27.3	27.3	54	12.9	3	7	270	0.00	30.155 
12:45	27.5	27.5	27.5	54	13.1	3	6	270	0.00	30.154 
12:50	27.3	27.3	27.3	53	12.5	3	7	248	0.00	30.155 
12:55	27.5	27.5	27.5	52	12.2	3	7	270	0.00	30.151 
13:00	27.3	27.3	27.3	52	12.0	2	4	270	0.00	30.153 
13:05	27.3	27.3	27.3	51	11.6	2	6	248	0.00	30.152 
13:10	27.3	27.3	27.3	50	11.1	2	8	270	0.00	30.150 
13:15	27.2	27.2	27.2	51	11.5	2	4	270	0.00	30.150 
13:20	27.2	27.2	27.2	51	11.5	2	5	248	0.00	30.151 
13:25	27.2	27.2	27.2	51	11.5	2	5	270	0.00	30.149 
13:30	27.3	27.3	27.3	50	11.1	2	4	270	0.00	30.149 
13:35	27.2	27.2	27.2	50	11.1	3	7	270	0.00	30.148 
13:40	27.2	27.2	27.2	50	11.1	2	6	270	0.00	30.147 
13:45	27.2	27.2	27.2	50	11.1	3	11	270	0.00	30.149 
13:50	27.3	27.3	27.3	52	12.0	1	6	270	0.00	30.149 
13:55	27.3	27.3	27.3	50	11.1	3	9	248	0.00	30.149 
14:00	27.3	27.3	27.3	51	11.6	3	6	270	0.00	30.150 
14:05	27.3	27.3	27.3	50	11.1	3	9	270	0.00	30.150 
14:10	27.2	27.2	27.2	51	11.5	3	7	270	0.00	30.151 
14:15	27.6	27.6	27.6	54	13.2	2	6	292	0.00	30.150 
14:20	27.5	22.9	27.5	50	11.3	4	7	270	0.00	30.151 
14:25	27.3	27.3	27.3	50	11.1	3	11	248	0.00	30.152 
14:30	27.6	27.6	27.6	53	12.7	2	6	270	0.00	30.150 
14:35	27.6	27.6	27.6	51	11.9	3	7	248	0.00	30.149 
14:40	27.5	22.9	27.5	51	11.8	4	10	248	0.00	30.147 
14:45	27.5	27.5	27.5	50	11.3	3	7	248	0.00	30.149 
14:50	27.6	27.6	27.6	50	11.4	3	9	270	0.00	30.148 
14:55	27.6	27.6	27.6	50	11.4	3	9	270	0.00	30.151 
15:00	27.6	27.6	27.6	50	11.4	2	6	270	0.00	30.151 
15:05	27.6	27.6	27.6	50	11.4	3	9	270	0.00	30.154 
15:10	27.6	27.6	27.6	49	11.0	3	6	270	0.00	30.156 
15:15	27.6	27.6	27.6	50	11.4	2	6	248	0.00	30.155 
15:20	27.9	27.9	27.9	50	11.7	3	9	270	0.00	30.158 
15:25	27.9	27.9	27.9	48	10.8	2	6	248	0.00	30.156 
15:30	27.8	27.8	27.8	49	11.2	2	4	248	0.00	30.158 
15:35	27.8	27.8	27.8	49	11.2	2	5	248	0.00	30.155 
15:40	27.8	27.8	27.8	49	11.2	2	5	270	0.00	30.154 
15:45	27.6	27.6	27.6	49	11.0	3	5	270	0.00	30.156 
15:50	27.8	23.2	27.8	49	11.2	4	11	248	0.00	30.155 
15:55	27.8	27.8	27.8	50	11.6	3	6	270	0.00	30.155 
16:00	27.6	27.6	27.6	50	11.4	3	7	248	0.00	30.155 
16:05	27.5	27.5	27.5	50	11.3	2	7	248	0.00	30.156 
16:10	27.0	27.0	27.0	50	10.9	3	11	270	0.00	30.156 
16:15	26.7	26.7	26.7	51	11.0	3	6	292	0.00	30.159 
16:20	26.7	26.7	26.7	52	11.5	2	5	270	0.00	30.162 
16:25	26.9	26.9	26.9	51	11.2	3	9	248	0.00	30.164 
16:30	26.9	26.9	26.9	51	11.2	2	5	270	0.00	30.163 
16:35	26.9	26.9	26.9	51	11.2	2	5	270	0.00	30.163 
16:40	27.0	27.0	27.0	51	11.3	2	5	248	0.00	30.162 
16:45	26.9	26.9	26.9	50	10.8	3	8	270	0.00	30.164 
16:50	26.6	26.6	26.6	52	11.4	2	7	270	0.00	30.162 
16:55	26.6	26.6	26.6	51	10.9	2	6	248	0.00	30.165 
17:00	26.7	26.7	26.7	49	10.1	2	6	248	0.00	30.164 
17:05	26.7	26.7	26.7	49	10.1	2	6	248	0.00	30.160 
17:10	26.6	26.6	26.6	48	9.6	3	10	248	0.00	30.160 
17:15	26.6	26.6	26.6	49	10.0	2	5	248	0.00	30.161 
17:20	26.6	26.6	26.6	49	10.0	2	5	248	0.00	30.160 
17:25	26.6	26.6	26.6	49	10.0	2	6	248	0.00	30.157 
17:30	26.4	26.4	26.4	48	9.4	2	9	270	0.00	30.158 
17:35	26.3	26.3	26.3	49	9.8	1	4	248	0.00	30.160 
17:40	26.1	26.1	26.1	50	10.0	1	3	248	0.00	30.159 
17:45	26.3	26.3	26.3	50	10.2	1	2	248	0.00	30.160 
17:50	26.1	26.1	26.1	50	10.0	1	6	248	0.00	30.161 
17:55	26.0	26.0	26.0	50	9.9	1	4	248	0.00	30.161 
18:00	25.7	25.7	25.7	51	10.1	0	2	248	0.00	30.162 
18:05	25.6	25.6	25.6	51	10.0	1	3	248	0.00	30.160 
18:10	25.4	25.4	25.4	52	10.3	1	3	248	0.00	30.163 
18:15	25.3	25.3	25.3	52	10.2	0	2	248	0.00	30.168 
18:20	25.0	25.0	25.0	52	9.9	1	3	248	0.00	30.169 
18:25	24.8	24.8	24.8	53	10.1	1	3	248	0.00	30.169 
18:30	24.7	24.7	24.7	53	10.0	1	3	248	0.00	30.169 
18:35	24.5	24.5	24.5	53	9.8	1	4	248	0.00	30.169 
18:40	24.4	24.4	24.4	54	10.2	0	1	248	0.00	30.169 
18:45	24.2	24.2	24.2	54	10.0	0	1	248	0.00	30.173 
18:50	24.1	24.1	24.1	54	9.9	0	1	248	0.00	30.174 
18:55	23.9	23.9	23.9	55	10.1	0	2	248	0.00	30.173 
19:00	23.8	23.8	23.8	55	10.0	0	3	248	0.00	30.175 
19:05	23.6	23.6	23.6	55	9.8	1	3	248	0.00	30.176 
19:10	23.6	23.6	23.6	55	9.8	1	3	248	0.00	30.176 
19:15	23.6	23.6	23.6	55	9.8	0	3	248	0.00	30.176 
19:20	23.3	23.3	23.3	56	10.0	0	1	248	0.00	30.179 
19:25	23.2	23.2	23.2	56	9.9	0	1	248	0.00	30.184 
19:30	23.0	23.0	23.0	57	10.1	0	0	---	0.00	30.187 
19:35	22.9	22.9	22.9	57	10.0	0	0	---	0.00	30.187 
19:40	22.5	22.5	22.5	57	9.6	0	0	---	0.00	30.187 
19:45	22.2	22.2	22.2	58	9.7	0	0	---	0.00	30.188 
19:50	21.9	21.9	21.9	58	9.4	0	0	---	0.00	30.187 
19:55	21.6	21.6	21.6	59	9.5	0	0	---	0.00	30.187 
20:00	21.1	21.1	21.1	59	9.0	0	0	---	0.00	30.190 
20:05	20.8	20.8	20.8	60	9.1	0	0	---	0.00	30.188 
20:10	20.3	20.3	20.3	60	8.7	0	0	---	0.00	30.189 
20:15	20.0	20.0	20.0	61	8.7	0	0	---	0.00	30.189 
20:20	19.5	19.5	19.5	62	8.6	0	0	---	0.00	30.188 
20:25	19.2	19.2	19.2	64	9.0	0	0	---	0.00	30.189 
20:30	18.9	18.9	18.9	66	9.4	0	0	---	0.00	30.188 
20:35	18.6	18.6	18.6	67	9.5	0	0	---	0.00	30.186 
20:40	18.4	18.4	18.4	67	9.3	0	0	---	0.00	30.184 
20:45	18.1	18.1	18.1	67	9.0	0	0	---	0.00	30.185 
20:50	17.8	17.8	17.8	67	8.7	0	0	---	0.00	30.185 
20:55	17.7	17.7	17.7	68	9.0	0	0	---	0.00	30.186 
21:00	17.3	17.3	17.3	69	8.9	0	0	---	0.00	30.189 
21:05	17.2	17.2	17.2	70	9.1	0	0	---	0.00	30.186 
21:10	16.9	16.9	16.9	71	9.2	0	0	---	0.00	30.186 
21:15	16.7	16.7	16.7	71	9.0	0	0	---	0.00	30.182 
21:20	16.5	16.5	16.5	72	9.1	0	0	---	0.00	30.182 
21:25	16.4	16.4	16.4	73	9.3	0	0	---	0.00	30.179 
21:30	16.4	16.4	16.4	74	9.6	0	0	---	0.00	30.177 
21:35	16.2	16.2	16.2	74	9.4	0	0	---	0.00	30.178 
21:40	15.9	15.9	15.9	74	9.1	0	0	---	0.00	30.178 
21:45	15.9	15.9	15.9	75	9.4	0	0	---	0.00	30.178 
21:50	15.6	15.6	15.6	75	9.1	0	0	---	0.00	30.175 
21:55	15.4	15.4	15.4	76	9.2	0	0	---	0.00	30.176 
22:00	15.4	15.4	15.4	77	9.5	0	0	---	0.00	30.178 
22:05	15.4	15.4	15.4	77	9.5	0	0	---	0.00	30.176 
22:10	15.2	15.2	15.2	77	9.3	0	0	---	0.00	30.176 
22:15	15.2	15.2	15.2	78	9.6	0	0	---	0.00	30.178 
22:20	15.2	15.2	15.2	78	9.6	0	0	---	0.00	30.178 
22:25	15.2	15.2	15.2	79	9.9	0	0	---	0.00	30.177 
22:30	15.2	15.2	15.2	78	9.6	0	0	---	0.00	30.178 
22:35	15.1	15.1	15.1	78	9.5	0	0	---	0.00	30.178 
22:40	14.9	14.9	14.9	79	9.6	0	0	---	0.00	30.178 
22:45	14.9	14.9	14.9	79	9.6	0	0	---	0.00	30.178 
22:50	14.8	14.8	14.8	80	9.8	0	0	---	0.00	30.176 
22:55	14.8	14.8	14.8	80	9.8	0	0	---	0.00	30.176 
23:00	14.6	14.6	14.6	80	9.6	0	0	---	0.00	30.177 
23:05	14.4	14.4	14.4	80	9.4	0	0	---	0.00	30.177 
23:10	14.3	14.3	14.3	81	9.6	0	0	---	0.00	30.177 
23:15	14.3	14.3	14.3	81	9.6	0	0	---	0.00	30.179 
23:20	14.1	14.1	14.1	81	9.4	0	0	---	0.00	30.178 
23:25	14.0	14.0	14.0	81	9.3	0	0	---	0.00	30.175 
23:30	14.0	14.0	14.0	81	9.3	0	0	---	0.00	30.177 
23:35	14.0	14.0	14.0	82	9.5	0	0	---	0.00	30.176 
23:40	14.0	14.0	14.0	82	9.5	0	0	---	0.00	30.174 
23:45	14.0	14.0	14.0	82	9.5	0	0	---	0.00	30.173 
23:50	14.0	14.0	14.0	82	9.5	0	0	---	0.00	30.173 
23:55	14.0	14.0	14.0	83	9.8	0	0	---	0.00	30.174 

CoCoRaHS
IN-AL-39
A2 Web Hosting
Creative Commons License
GoDaddy
search engine by freefind advanced

loaded 2018-11-15 13:47:00 • last modified 2010-11-18 10:43:29
Privacy PolicyDisclaimer
• wx.awcolley.com is powered by PmWiki v.2002016 •
• all content (unless otherwise noted) © 2018 A W Colley